sensor_id;sensor_type;location;lat;lon;timestamp;temperature;humidity
21801;DHT22;11062;51.164;16.924;2023-03-11T00:00:25;28.40;41.00
21801;DHT22;11062;51.164;16.924;2023-03-11T00:02:56;27.90;40.60
21801;DHT22;11062;51.164;16.924;2023-03-11T00:05:25;27.60;41.10
21801;DHT22;11062;51.164;16.924;2023-03-11T00:07:52;26.80;41.20
21801;DHT22;11062;51.164;16.924;2023-03-11T00:10:33;27.40;41.60
21801;DHT22;11062;51.164;16.924;2023-03-11T00:13:00;26.90;41.00
21801;DHT22;11062;51.164;16.924;2023-03-11T00:15:27;26.80;41.60
21801;DHT22;11062;51.164;16.924;2023-03-11T00:17:53;26.50;41.20
21801;DHT22;11062;51.164;16.924;2023-03-11T00:20:27;27.00;42.00
21801;DHT22;11062;51.164;16.924;2023-03-11T00:22:54;27.10;40.90
21801;DHT22;11062;51.164;16.924;2023-03-11T00:25:22;27.00;41.80
21801;DHT22;11062;51.164;16.924;2023-03-11T00:27:48;26.80;41.40
21801;DHT22;11062;51.164;16.924;2023-03-11T00:30:15;26.80;41.70
21801;DHT22;11062;51.164;16.924;2023-03-11T00:32:41;25.90;41.20
21801;DHT22;11062;51.164;16.924;2023-03-11T00:35:15;25.50;41.60
21801;DHT22;11062;51.164;16.924;2023-03-11T00:37:41;26.50;41.30
21801;DHT22;11062;51.164;16.924;2023-03-11T00:40:17;26.30;41.10
21801;DHT22;11062;51.164;16.924;2023-03-11T00:42:43;26.90;41.40
21801;DHT22;11062;51.164;16.924;2023-03-11T00:45:10;26.10;41.30
21801;DHT22;11062;51.164;16.924;2023-03-11T00:47:36;26.20;40.20
21801;DHT22;11062;51.164;16.924;2023-03-11T00:50:02;26.20;41.30
21801;DHT22;11062;51.164;16.924;2023-03-11T00:52:28;26.00;40.10
21801;DHT22;11062;51.164;16.924;2023-03-11T00:54:55;25.80;41.00
21801;DHT22;11062;51.164;16.924;2023-03-11T00:57:21;26.20;41.20
21801;DHT22;11062;51.164;16.924;2023-03-11T00:59:47;26.40;41.40
21801;DHT22;11062;51.164;16.924;2023-03-11T01:04:55;25.50;41.50
21801;DHT22;11062;51.164;16.924;2023-03-11T01:07:21;23.40;41.80
21801;DHT22;11062;51.164;16.924;2023-03-11T01:09:47;23.70;44.70
21801;DHT22;11062;51.164;16.924;2023-03-11T01:12:13;23.90;46.30
21801;DHT22;11062;51.164;16.924;2023-03-11T01:14:42;23.30;46.10
21801;DHT22;11062;51.164;16.924;2023-03-11T01:17:08;23.90;44.50
21801;DHT22;11062;51.164;16.924;2023-03-11T01:19:34;23.30;45.30
21801;DHT22;11062;51.164;16.924;2023-03-11T01:21:59;24.00;45.80
21801;DHT22;11062;51.164;16.924;2023-03-11T01:24:25;22.50;45.10
21801;DHT22;11062;51.164;16.924;2023-03-11T01:26:51;22.70;45.20
21801;DHT22;11062;51.164;16.924;2023-03-11T01:29:17;24.40;45.60
21801;DHT22;11062;51.164;16.924;2023-03-11T01:31:43;24.10;45.10
21801;DHT22;11062;51.164;16.924;2023-03-11T01:34:09;23.30;44.20
21801;DHT22;11062;51.164;16.924;2023-03-11T01:36:35;23.90;44.30
21801;DHT22;11062;51.164;16.924;2023-03-11T01:39:00;23.50;44.40
21801;DHT22;11062;51.164;16.924;2023-03-11T01:41:26;23.70;44.30
21801;DHT22;11062;51.164;16.924;2023-03-11T01:43:53;22.80;44.20
21801;DHT22;11062;51.164;16.924;2023-03-11T01:46:27;23.40;43.50
21801;DHT22;11062;51.164;16.924;2023-03-11T01:48:57;23.10;43.50
21801;DHT22;11062;51.164;16.924;2023-03-11T01:51:45;23.90;43.40
21801;DHT22;11062;51.164;16.924;2023-03-11T01:54:26;23.60;43.00
21801;DHT22;11062;51.164;16.924;2023-03-11T01:56:53;24.80;43.30
21801;DHT22;11062;51.164;16.924;2023-03-11T01:59:31;24.80;42.90
21801;DHT22;11062;51.164;16.924;2023-03-11T02:02:04;23.90;41.90
21801;DHT22;11062;51.164;16.924;2023-03-11T02:04:33;23.80;42.30
21801;DHT22;11062;51.164;16.924;2023-03-11T02:06:59;25.20;42.70
21801;DHT22;11062;51.164;16.924;2023-03-11T02:09:25;23.80;42.00
21801;DHT22;11062;51.164;16.924;2023-03-11T02:11:52;24.70;42.50
21801;DHT22;11062;51.164;16.924;2023-03-11T02:14:19;24.60;41.60
21801;DHT22;11062;51.164;16.924;2023-03-11T02:16:45;24.60;42.90
21801;DHT22;11062;51.164;16.924;2023-03-11T02:21:56;24.30;40.70
21801;DHT22;11062;51.164;16.924;2023-03-11T02:25:07;24.00;42.20
21801;DHT22;11062;51.164;16.924;2023-03-11T02:27:32;23.90;41.90
21801;DHT22;11062;51.164;16.924;2023-03-11T02:29:58;23.20;42.00
21801;DHT22;11062;51.164;16.924;2023-03-11T02:32:25;24.60;42.60
21801;DHT22;11062;51.164;16.924;2023-03-11T02:34:51;24.40;42.10
21801;DHT22;11062;51.164;16.924;2023-03-11T02:37:17;23.80;42.40
21801;DHT22;11062;51.164;16.924;2023-03-11T02:39:52;23.70;42.10
21801;DHT22;11062;51.164;16.924;2023-03-11T02:44:55;24.60;42.90
21801;DHT22;11062;51.164;16.924;2023-03-11T02:47:21;23.90;41.50
21801;DHT22;11062;51.164;16.924;2023-03-11T02:49:47;23.90;41.50
21801;DHT22;11062;51.164;16.924;2023-03-11T02:52:13;25.00;42.40
21801;DHT22;11062;51.164;16.924;2023-03-11T02:54:39;24.60;41.70
21801;DHT22;11062;51.164;16.924;2023-03-11T02:57:05;25.00;41.80
21801;DHT22;11062;51.164;16.924;2023-03-11T02:59:31;24.30;41.90
21801;DHT22;11062;51.164;16.924;2023-03-11T03:01:57;23.20;42.90
21801;DHT22;11062;51.164;16.924;2023-03-11T03:04:22;20.90;44.70
21801;DHT22;11062;51.164;16.924;2023-03-11T03:06:48;20.00;46.10
21801;DHT22;11062;51.164;16.924;2023-03-11T03:09:14;21.10;47.40
21801;DHT22;11062;51.164;16.924;2023-03-11T03:11:40;18.80;46.20
21801;DHT22;11062;51.164;16.924;2023-03-11T03:14:06;20.30;46.40
21801;DHT22;11062;51.164;16.924;2023-03-11T03:16:32;19.10;45.70
21801;DHT22;11062;51.164;16.924;2023-03-11T03:18:58;18.50;47.30
21801;DHT22;11062;51.164;16.924;2023-03-11T03:21:23;17.00;47.00
21801;DHT22;11062;51.164;16.924;2023-03-11T03:23:49;18.70;48.10
21801;DHT22;11062;51.164;16.924;2023-03-11T03:26:15;17.70;46.50
21801;DHT22;11062;51.164;16.924;2023-03-11T03:28:41;16.80;46.80
21801;DHT22;11062;51.164;16.924;2023-03-11T03:31:08;17.90;47.00
21801;DHT22;11062;51.164;16.924;2023-03-11T03:33:37;18.70;44.60
21801;DHT22;11062;51.164;16.924;2023-03-11T03:36:08;18.50;45.80
21801;DHT22;11062;51.164;16.924;2023-03-11T03:38:34;19.00;44.00
21801;DHT22;11062;51.164;16.924;2023-03-11T03:41:00;18.90;45.60
21801;DHT22;11062;51.164;16.924;2023-03-11T03:43:26;18.50;44.80
21801;DHT22;11062;51.164;16.924;2023-03-11T03:46:02;18.60;44.00
21801;DHT22;11062;51.164;16.924;2023-03-11T03:48:29;17.40;42.00
21801;DHT22;11062;51.164;16.924;2023-03-11T03:50:55;16.90;43.40
21801;DHT22;11062;51.164;16.924;2023-03-11T03:53:21;17.90;44.60
21801;DHT22;11062;51.164;16.924;2023-03-11T03:55:47;15.90;46.60
21801;DHT22;11062;51.164;16.924;2023-03-11T03:58:15;15.90;46.90
21801;DHT22;11062;51.164;16.924;2023-03-11T04:00:41;16.70;48.70
21801;DHT22;11062;51.164;16.924;2023-03-11T04:03:06;16.90;48.10
21801;DHT22;11062;51.164;16.924;2023-03-11T04:05:32;17.20;47.80
21801;DHT22;11062;51.164;16.924;2023-03-11T04:08:01;16.60;47.50
21801;DHT22;11062;51.164;16.924;2023-03-11T04:10:27;17.40;46.10
21801;DHT22;11062;51.164;16.924;2023-03-11T04:12:53;17.30;47.10
21801;DHT22;11062;51.164;16.924;2023-03-11T04:15:21;16.80;46.40
21801;DHT22;11062;51.164;16.924;2023-03-11T04:17:47;16.10;46.90
21801;DHT22;11062;51.164;16.924;2023-03-11T04:20:13;16.70;47.70
21801;DHT22;11062;51.164;16.924;2023-03-11T04:22:39;16.20;47.70
21801;DHT22;11062;51.164;16.924;2023-03-11T04:25:08;16.30;47.60
21801;DHT22;11062;51.164;16.924;2023-03-11T04:27:33;17.30;47.30
21801;DHT22;11062;51.164;16.924;2023-03-11T04:29:59;17.70;46.30
21801;DHT22;11062;51.164;16.924;2023-03-11T04:32:25;17.60;45.10
21801;DHT22;11062;51.164;16.924;2023-03-11T04:34:51;18.40;44.90
21801;DHT22;11062;51.164;16.924;2023-03-11T04:37:17;17.60;44.90
21801;DHT22;11062;51.164;16.924;2023-03-11T04:39:43;17.20;44.80
21801;DHT22;11062;51.164;16.924;2023-03-11T04:42:09;17.60;45.70
21801;DHT22;11062;51.164;16.924;2023-03-11T04:44:35;16.70;45.70
21801;DHT22;11062;51.164;16.924;2023-03-11T04:47:01;16.80;47.00
21801;DHT22;11062;51.164;16.924;2023-03-11T04:49:26;15.00;47.70
21801;DHT22;11062;51.164;16.924;2023-03-11T04:51:52;16.20;48.70
21801;DHT22;11062;51.164;16.924;2023-03-11T04:54:18;16.90;48.10
21801;DHT22;11062;51.164;16.924;2023-03-11T04:56:44;15.60;47.40
21801;DHT22;11062;51.164;16.924;2023-03-11T04:59:10;17.00;48.90
21801;DHT22;11062;51.164;16.924;2023-03-11T05:01:36;17.10;48.20
21801;DHT22;11062;51.164;16.924;2023-03-11T05:04:01;16.90;47.20
21801;DHT22;11062;51.164;16.924;2023-03-11T05:06:27;16.70;45.90
21801;DHT22;11062;51.164;16.924;2023-03-11T05:08:53;16.40;46.30
21801;DHT22;11062;51.164;16.924;2023-03-11T05:11:19;17.50;47.50
21801;DHT22;11062;51.164;16.924;2023-03-11T05:13:45;17.70;47.00
21801;DHT22;11062;51.164;16.924;2023-03-11T05:16:11;17.00;46.40
21801;DHT22;11062;51.164;16.924;2023-03-11T05:18:37;16.00;46.30
21801;DHT22;11062;51.164;16.924;2023-03-11T05:21:03;16.80;46.50
21801;DHT22;11062;51.164;16.924;2023-03-11T05:23:29;17.70;46.40
21801;DHT22;11062;51.164;16.924;2023-03-11T05:25:55;16.20;46.50
21801;DHT22;11062;51.164;16.924;2023-03-11T05:28:21;17.10;47.10
21801;DHT22;11062;51.164;16.924;2023-03-11T05:30:47;17.40;46.70
21801;DHT22;11062;51.164;16.924;2023-03-11T05:33:13;16.60;46.50
21801;DHT22;11062;51.164;16.924;2023-03-11T05:35:41;16.10;47.60
21801;DHT22;11062;51.164;16.924;2023-03-11T05:38:07;16.10;47.90
21801;DHT22;11062;51.164;16.924;2023-03-11T05:40:33;17.10;48.40
21801;DHT22;11062;51.164;16.924;2023-03-11T05:42:59;16.50;47.70
21801;DHT22;11062;51.164;16.924;2023-03-11T05:45:25;17.20;48.50
21801;DHT22;11062;51.164;16.924;2023-03-11T05:47:51;17.30;48.90
21801;DHT22;11062;51.164;16.924;2023-03-11T05:50:17;16.70;47.60
21801;DHT22;11062;51.164;16.924;2023-03-11T05:52:43;17.40;48.30
21801;DHT22;11062;51.164;16.924;2023-03-11T05:55:12;18.00;46.80
21801;DHT22;11062;51.164;16.924;2023-03-11T05:57:40;18.00;47.00
21801;DHT22;11062;51.164;16.924;2023-03-11T06:00:07;17.80;46.80
21801;DHT22;11062;51.164;16.924;2023-03-11T06:02:38;16.70;45.60
21801;DHT22;11062;51.164;16.924;2023-03-11T06:05:05;16.40;46.10
21801;DHT22;11062;51.164;16.924;2023-03-11T06:07:33;17.10;46.80
21801;DHT22;11062;51.164;16.924;2023-03-11T06:10:00;16.30;46.30
21801;DHT22;11062;51.164;16.924;2023-03-11T06:12:26;17.30;47.10
21801;DHT22;11062;51.164;16.924;2023-03-11T06:14:52;17.30;47.10
21801;DHT22;11062;51.164;16.924;2023-03-11T06:17:18;17.50;47.00
21801;DHT22;11062;51.164;16.924;2023-03-11T06:19:44;16.60;47.60
21801;DHT22;11062;51.164;16.924;2023-03-11T06:22:10;17.80;47.80
21801;DHT22;11062;51.164;16.924;2023-03-11T06:24:36;17.70;47.30
21801;DHT22;11062;51.164;16.924;2023-03-11T06:27:02;16.60;47.10
21801;DHT22;11062;51.164;16.924;2023-03-11T06:29:28;17.60;47.80
21801;DHT22;11062;51.164;16.924;2023-03-11T06:32:00;17.30;48.00
21801;DHT22;11062;51.164;16.924;2023-03-11T06:34:26;16.40;47.60
21801;DHT22;11062;51.164;16.924;2023-03-11T06:36:52;16.30;47.30
21801;DHT22;11062;51.164;16.924;2023-03-11T06:39:19;17.20;46.90
21801;DHT22;11062;51.164;16.924;2023-03-11T06:41:45;18.20;48.70
21801;DHT22;11062;51.164;16.924;2023-03-11T06:44:11;16.90;48.10
21801;DHT22;11062;51.164;16.924;2023-03-11T06:46:37;15.60;47.80
21801;DHT22;11062;51.164;16.924;2023-03-11T06:49:03;15.90;48.40
21801;DHT22;11062;51.164;16.924;2023-03-11T06:51:32;15.90;49.10
21801;DHT22;11062;51.164;16.924;2023-03-11T06:53:58;15.60;48.80
21801;DHT22;11062;51.164;16.924;2023-03-11T06:56:24;15.70;49.90
21801;DHT22;11062;51.164;16.924;2023-03-11T06:58:52;16.10;50.30
21801;DHT22;11062;51.164;16.924;2023-03-11T07:01:20;14.70;48.90
21801;DHT22;11062;51.164;16.924;2023-03-11T07:03:50;15.70;49.90
21801;DHT22;11062;51.164;16.924;2023-03-11T07:06:22;15.10;51.70
21801;DHT22;11062;51.164;16.924;2023-03-11T07:08:50;13.70;50.00
21801;DHT22;11062;51.164;16.924;2023-03-11T07:11:19;14.60;50.60
21801;DHT22;11062;51.164;16.924;2023-03-11T07:13:45;15.50;51.10
21801;DHT22;11062;51.164;16.924;2023-03-11T07:16:23;15.40;51.50
21801;DHT22;11062;51.164;16.924;2023-03-11T07:18:50;15.10;50.50
21801;DHT22;11062;51.164;16.924;2023-03-11T07:21:19;15.20;51.50
21801;DHT22;11062;51.164;16.924;2023-03-11T07:23:45;13.70;51.90
21801;DHT22;11062;51.164;16.924;2023-03-11T07:26:14;13.90;51.50
21801;DHT22;11062;51.164;16.924;2023-03-11T07:28:41;15.00;51.90
21801;DHT22;11062;51.164;16.924;2023-03-11T07:31:12;15.70;53.30
21801;DHT22;11062;51.164;16.924;2023-03-11T07:36:12;14.90;50.70
21801;DHT22;11062;51.164;16.924;2023-03-11T07:43:32;13.20;54.10
21801;DHT22;11062;51.164;16.924;2023-03-11T07:46:06;13.00;54.80
21801;DHT22;11062;51.164;16.924;2023-03-11T07:51:06;13.10;54.10
21801;DHT22;11062;51.164;16.924;2023-03-11T07:56:00;12.60;57.80
21801;DHT22;11062;51.164;16.924;2023-03-11T08:40:01;12.50;55.90
21801;DHT22;11062;51.164;16.924;2023-03-11T09:21:33;13.10;54.50
21801;DHT22;11062;51.164;16.924;2023-03-11T09:33:45;12.00;55.00
21801;DHT22;11062;51.164;16.924;2023-03-11T09:36:14;11.90;55.00
21801;DHT22;11062;51.164;16.924;2023-03-11T09:38:41;11.80;58.20
21801;DHT22;11062;51.164;16.924;2023-03-11T09:47:06;11.50;66.50
21801;DHT22;11062;51.164;16.924;2023-03-11T09:55:03;12.30;58.00
21801;DHT22;11062;51.164;16.924;2023-03-11T09:57:35;12.80;57.10
21801;DHT22;11062;51.164;16.924;2023-03-11T10:00:05;12.50;56.70
21801;DHT22;11062;51.164;16.924;2023-03-11T10:02:31;10.40;57.40
21801;DHT22;11062;51.164;16.924;2023-03-11T10:14:00;12.60;55.30
21801;DHT22;11062;51.164;16.924;2023-03-11T10:16:49;12.30;56.20
21801;DHT22;11062;51.164;16.924;2023-03-11T10:19:47;12.20;56.60
21801;DHT22;11062;51.164;16.924;2023-03-11T10:22:26;12.00;56.10
21801;DHT22;11062;51.164;16.924;2023-03-11T10:27:57;11.40;57.50
21801;DHT22;11062;51.164;16.924;2023-03-11T10:30:32;11.50;57.80
21801;DHT22;11062;51.164;16.924;2023-03-11T10:35:53;11.90;56.10
21801;DHT22;11062;51.164;16.924;2023-03-11T10:38:32;12.10;56.40
21801;DHT22;11062;51.164;16.924;2023-03-11T10:41:03;12.00;55.30
21801;DHT22;11062;51.164;16.924;2023-03-11T10:43:39;11.70;55.50
21801;DHT22;11062;51.164;16.924;2023-03-11T10:51:16;13.20;54.20
21801;DHT22;11062;51.164;16.924;2023-03-11T10:53:57;13.60;54.10
21801;DHT22;11062;51.164;16.924;2023-03-11T11:01:20;12.90;56.00
21801;DHT22;11062;51.164;16.924;2023-03-11T11:03:49;12.50;53.30
21801;DHT22;11062;51.164;16.924;2023-03-11T11:06:38;12.10;54.30
21801;DHT22;11062;51.164;16.924;2023-03-11T11:12:00;12.70;54.10
21801;DHT22;11062;51.164;16.924;2023-03-11T11:14:42;11.80;55.90
21801;DHT22;11062;51.164;16.924;2023-03-11T11:17:22;12.80;53.00
21801;DHT22;11062;51.164;16.924;2023-03-11T11:19:49;12.60;54.00
21801;DHT22;11062;51.164;16.924;2023-03-11T11:22:18;11.20;55.70
21801;DHT22;11062;51.164;16.924;2023-03-11T11:24:47;11.80;55.20
21801;DHT22;11062;51.164;16.924;2023-03-11T11:27:24;11.80;57.60
21801;DHT22;11062;51.164;16.924;2023-03-11T11:30:16;10.10;55.60
21801;DHT22;11062;51.164;16.924;2023-03-11T11:32:42;11.70;55.10
21801;DHT22;11062;51.164;16.924;2023-03-11T11:35:16;11.40;55.90
21801;DHT22;11062;51.164;16.924;2023-03-11T11:37:52;11.70;56.50
21801;DHT22;11062;51.164;16.924;2023-03-11T11:40:23;10.70;56.60
21801;DHT22;11062;51.164;16.924;2023-03-11T11:42:53;12.50;55.00
21801;DHT22;11062;51.164;16.924;2023-03-11T11:45:30;12.50;53.90
21801;DHT22;11062;51.164;16.924;2023-03-11T11:50:52;12.10;54.60
21801;DHT22;11062;51.164;16.924;2023-03-11T11:56:00;13.10;52.40
21801;DHT22;11062;51.164;16.924;2023-03-11T12:06:18;12.70;52.60
21801;DHT22;11062;51.164;16.924;2023-03-11T12:11:32;12.70;51.10
21801;DHT22;11062;51.164;16.924;2023-03-11T12:16:59;13.80;49.90
21801;DHT22;11062;51.164;16.924;2023-03-11T12:22:43;13.60;47.50
21801;DHT22;11062;51.164;16.924;2023-03-11T12:25:18;13.60;48.10
21801;DHT22;11062;51.164;16.924;2023-03-11T12:28:00;13.80;48.00
21801;DHT22;11062;51.164;16.924;2023-03-11T12:30:47;13.40;48.10
21801;DHT22;11062;51.164;16.924;2023-03-11T12:34:02;13.60;47.80
21801;DHT22;11062;51.164;16.924;2023-03-11T12:36:04;14.10;47.60
21801;DHT22;11062;51.164;16.924;2023-03-11T12:38:39;12.90;49.20
21801;DHT22;11062;51.164;16.924;2023-03-11T12:46:09;15.10;45.70
21801;DHT22;11062;51.164;16.924;2023-03-11T12:49:08;14.90;49.40
21801;DHT22;11062;51.164;16.924;2023-03-11T12:54:27;14.30;50.20
21801;DHT22;11062;51.164;16.924;2023-03-11T12:59:44;13.90;47.80
21801;DHT22;11062;51.164;16.924;2023-03-11T13:08:07;13.20;48.50
21801;DHT22;11062;51.164;16.924;2023-03-11T13:10:40;13.00;49.30
21801;DHT22;11062;51.164;16.924;2023-03-11T13:18:42;13.80;48.30
21801;DHT22;11062;51.164;16.924;2023-03-11T13:35:21;15.60;45.60
21801;DHT22;11062;51.164;16.924;2023-03-11T13:40:49;16.70;47.50
21801;DHT22;11062;51.164;16.924;2023-03-11T13:43:22;15.80;42.70
21801;DHT22;11062;51.164;16.924;2023-03-11T13:45:53;16.00;42.50
21801;DHT22;11062;51.164;16.924;2023-03-11T13:48:40;15.60;42.20
21801;DHT22;11062;51.164;16.924;2023-03-11T13:51:23;16.00;44.70
21801;DHT22;11062;51.164;16.924;2023-03-11T13:54:13;14.10;41.80
21801;DHT22;11062;51.164;16.924;2023-03-11T13:56:47;16.30;45.50
21801;DHT22;11062;51.164;16.924;2023-03-11T13:59:20;15.10;43.20
21801;DHT22;11062;51.164;16.924;2023-03-11T14:01:56;16.50;43.30
21801;DHT22;11062;51.164;16.924;2023-03-11T14:04:29;15.70;42.30
21801;DHT22;11062;51.164;16.924;2023-03-11T14:06:56;14.20;43.60
21801;DHT22;11062;51.164;16.924;2023-03-11T14:09:23;16.50;44.40
21801;DHT22;11062;51.164;16.924;2023-03-11T14:11:52;15.40;44.00
21801;DHT22;11062;51.164;16.924;2023-03-11T14:14:49;15.90;44.30
21801;DHT22;11062;51.164;16.924;2023-03-11T14:17:18;16.30;42.70
21801;DHT22;11062;51.164;16.924;2023-03-11T14:20:02;14.80;44.70
21801;DHT22;11062;51.164;16.924;2023-03-11T14:22:30;14.80;44.70
21801;DHT22;11062;51.164;16.924;2023-03-11T14:25:06;15.50;43.40
21801;DHT22;11062;51.164;16.924;2023-03-11T14:27:33;14.90;41.50
21801;DHT22;11062;51.164;16.924;2023-03-11T14:29:59;16.70;44.10
21801;DHT22;11062;51.164;16.924;2023-03-11T14:32:30;15.50;45.30
21801;DHT22;11062;51.164;16.924;2023-03-11T14:34:56;15.60;42.30
21801;DHT22;11062;51.164;16.924;2023-03-11T14:37:37;13.70;44.10
21801;DHT22;11062;51.164;16.924;2023-03-11T14:40:30;14.90;45.70
21801;DHT22;11062;51.164;16.924;2023-03-11T14:43:03;15.20;44.30
21801;DHT22;11062;51.164;16.924;2023-03-11T14:45:34;15.20;44.90
21801;DHT22;11062;51.164;16.924;2023-03-11T14:48:04;15.60;44.80
21801;DHT22;11062;51.164;16.924;2023-03-11T14:50:34;12.80;45.10
21801;DHT22;11062;51.164;16.924;2023-03-11T14:53:46;14.70;45.50
21801;DHT22;11062;51.164;16.924;2023-03-11T14:56:19;15.30;44.70
21801;DHT22;11062;51.164;16.924;2023-03-11T15:01:28;13.30;44.30
21801;DHT22;11062;51.164;16.924;2023-03-11T15:04:05;14.40;43.60
21801;DHT22;11062;51.164;16.924;2023-03-11T15:06:37;15.30;44.00
21801;DHT22;11062;51.164;16.924;2023-03-11T15:09:09;14.90;43.40
21801;DHT22;11062;51.164;16.924;2023-03-11T15:11:55;15.20;44.90
21801;DHT22;11062;51.164;16.924;2023-03-11T15:14:28;14.70;45.20
21801;DHT22;11062;51.164;16.924;2023-03-11T15:17:23;15.50;44.70
21801;DHT22;11062;51.164;16.924;2023-03-11T15:19:59;15.30;41.60
21801;DHT22;11062;51.164;16.924;2023-03-11T15:22:38;14.90;41.00
21801;DHT22;11062;51.164;16.924;2023-03-11T15:25:17;16.10;41.20
21801;DHT22;11062;51.164;16.924;2023-03-11T15:27:44;16.10;40.60
21801;DHT22;11062;51.164;16.924;2023-03-11T15:30:40;17.60;40.60
21801;DHT22;11062;51.164;16.924;2023-03-11T16:09:16;15.30;39.00
21801;DHT22;11062;51.164;16.924;2023-03-11T16:11:47;15.40;40.00
21801;DHT22;11062;51.164;16.924;2023-03-11T16:14:18;14.70;41.10
21801;DHT22;11062;51.164;16.924;2023-03-11T16:16:46;15.60;40.50
21801;DHT22;11062;51.164;16.924;2023-03-11T16:19:12;15.60;41.20
21801;DHT22;11062;51.164;16.924;2023-03-11T16:21:45;14.70;42.60
21801;DHT22;11062;51.164;16.924;2023-03-11T16:24:18;16.60;41.20
21801;DHT22;11062;51.164;16.924;2023-03-11T16:26:45;17.50;40.70
21801;DHT22;11062;51.164;16.924;2023-03-11T16:29:18;17.30;43.60
21801;DHT22;11062;51.164;16.924;2023-03-11T16:31:44;15.20;37.60
21801;DHT22;11062;51.164;16.924;2023-03-11T16:34:13;15.20;42.70
21801;DHT22;11062;51.164;16.924;2023-03-11T16:36:40;17.30;40.80
21801;DHT22;11062;51.164;16.924;2023-03-11T16:39:06;16.30;41.60
21801;DHT22;11062;51.164;16.924;2023-03-11T16:41:42;18.80;42.80
21801;DHT22;11062;51.164;16.924;2023-03-11T16:44:12;17.60;37.40
21801;DHT22;11062;51.164;16.924;2023-03-11T16:46:38;16.60;41.10
21801;DHT22;11062;51.164;16.924;2023-03-11T16:49:04;17.30;41.00
21801;DHT22;11062;51.164;16.924;2023-03-11T16:51:30;19.70;37.90
21801;DHT22;11062;51.164;16.924;2023-03-11T16:53:57;19.00;37.90
21801;DHT22;11062;51.164;16.924;2023-03-11T16:56:23;17.40;39.80
21801;DHT22;11062;51.164;16.924;2023-03-11T16:58:49;18.90;40.80
21801;DHT22;11062;51.164;16.924;2023-03-11T17:01:15;17.00;38.80
21801;DHT22;11062;51.164;16.924;2023-03-11T17:03:47;18.20;36.30
21801;DHT22;11062;51.164;16.924;2023-03-11T17:06:18;18.90;36.30
21801;DHT22;11062;51.164;16.924;2023-03-11T17:08:45;19.60;36.70
21801;DHT22;11062;51.164;16.924;2023-03-11T17:11:22;20.70;36.30
21801;DHT22;11062;51.164;16.924;2023-03-11T17:13:54;20.80;36.10
21801;DHT22;11062;51.164;16.924;2023-03-11T17:16:20;19.20;34.20
21801;DHT22;11062;51.164;16.924;2023-03-11T17:18:46;19.60;37.50
21801;DHT22;11062;51.164;16.924;2023-03-11T17:21:14;20.50;37.10
21801;DHT22;11062;51.164;16.924;2023-03-11T17:23:40;20.60;34.20
21801;DHT22;11062;51.164;16.924;2023-03-11T17:26:14;19.20;35.80
21801;DHT22;11062;51.164;16.924;2023-03-11T17:28:41;21.10;32.80
21801;DHT22;11062;51.164;16.924;2023-03-11T17:31:15;22.70;35.80
21801;DHT22;11062;51.164;16.924;2023-03-11T17:33:42;20.10;34.30
21801;DHT22;11062;51.164;16.924;2023-03-11T17:36:09;20.50;36.70
21801;DHT22;11062;51.164;16.924;2023-03-11T17:38:35;21.00;34.30
21801;DHT22;11062;51.164;16.924;2023-03-11T17:41:13;20.60;37.40
21801;DHT22;11062;51.164;16.924;2023-03-11T17:43:40;20.30;35.70
21801;DHT22;11062;51.164;16.924;2023-03-11T17:46:13;20.50;37.60
21801;DHT22;11062;51.164;16.924;2023-03-11T17:48:44;18.90;36.00
21801;DHT22;11062;51.164;16.924;2023-03-11T17:51:12;20.80;37.30
21801;DHT22;11062;51.164;16.924;2023-03-11T17:53:40;20.90;37.00
21801;DHT22;11062;51.164;16.924;2023-03-11T17:56:07;21.70;36.70
21801;DHT22;11062;51.164;16.924;2023-03-11T17:58:36;21.40;37.10
21801;DHT22;11062;51.164;16.924;2023-03-11T18:01:04;19.10;40.60
21801;DHT22;11062;51.164;16.924;2023-03-11T18:03:30;20.20;39.20
21801;DHT22;11062;51.164;16.924;2023-03-11T18:05:58;19.40;45.10
21801;DHT22;11062;51.164;16.924;2023-03-11T18:08:25;19.50;42.70
21801;DHT22;11062;51.164;16.924;2023-03-11T18:10:52;18.30;40.70
21801;DHT22;11062;51.164;16.924;2023-03-11T18:13:19;18.40;41.30
21801;DHT22;11062;51.164;16.924;2023-03-11T18:15:45;19.00;43.30
21801;DHT22;11062;51.164;16.924;2023-03-11T18:18:22;19.90;43.50
21801;DHT22;11062;51.164;16.924;2023-03-11T18:20:48;20.10;46.90
21801;DHT22;11062;51.164;16.924;2023-03-11T18:23:17;18.10;43.40
21801;DHT22;11062;51.164;16.924;2023-03-11T18:25:43;20.00;43.60
21801;DHT22;11062;51.164;16.924;2023-03-11T18:28:10;18.00;44.70
21801;DHT22;11062;51.164;16.924;2023-03-11T18:30:36;20.20;46.90
21801;DHT22;11062;51.164;16.924;2023-03-11T18:33:02;19.90;46.80
21801;DHT22;11062;51.164;16.924;2023-03-11T18:37:57;18.60;39.30
21801;DHT22;11062;51.164;16.924;2023-03-11T18:40:26;19.20;41.00
21801;DHT22;11062;51.164;16.924;2023-03-11T18:42:52;16.90;39.50
21801;DHT22;11062;51.164;16.924;2023-03-11T18:45:18;19.90;47.30
21801;DHT22;11062;51.164;16.924;2023-03-11T18:47:44;17.80;45.70
21801;DHT22;11062;51.164;16.924;2023-03-11T18:50:10;19.40;45.70
21801;DHT22;11062;51.164;16.924;2023-03-11T18:52:36;19.50;43.40
21801;DHT22;11062;51.164;16.924;2023-03-11T18:55:03;18.40;45.40
21801;DHT22;11062;51.164;16.924;2023-03-11T18:57:29;19.50;42.80
21801;DHT22;11062;51.164;16.924;2023-03-11T18:59:55;20.10;46.40
21801;DHT22;11062;51.164;16.924;2023-03-11T19:04:47;19.60;38.30
21801;DHT22;11062;51.164;16.924;2023-03-11T19:07:13;20.50;45.50
21801;DHT22;11062;51.164;16.924;2023-03-11T19:09:39;18.60;43.80
21801;DHT22;11062;51.164;16.924;2023-03-11T19:12:05;18.60;41.80
21801;DHT22;11062;51.164;16.924;2023-03-11T19:14:34;20.40;42.40
21801;DHT22;11062;51.164;16.924;2023-03-11T19:17:00;18.50;43.50
21801;DHT22;11062;51.164;16.924;2023-03-11T19:19:29;20.10;44.00
21801;DHT22;11062;51.164;16.924;2023-03-11T19:21:58;20.80;38.80
21801;DHT22;11062;51.164;16.924;2023-03-11T19:24:24;20.50;44.60
21801;DHT22;11062;51.164;16.924;2023-03-11T19:26:50;20.70;45.00
21801;DHT22;11062;51.164;16.924;2023-03-11T19:29:16;18.70;44.20
21801;DHT22;11062;51.164;16.924;2023-03-11T19:31:43;20.30;43.80
21801;DHT22;11062;51.164;16.924;2023-03-11T19:34:10;19.90;43.80
21801;DHT22;11062;51.164;16.924;2023-03-11T19:36:36;20.10;43.90
21801;DHT22;11062;51.164;16.924;2023-03-11T19:39:02;19.30;37.80
21801;DHT22;11062;51.164;16.924;2023-03-11T19:43:54;19.50;37.70
21801;DHT22;11062;51.164;16.924;2023-03-11T19:48:47;18.80;39.20